Time;durP1;ratioP1;P1;durP2;ratioP2;P2;SDS_P1;SDS_P2;PMS_P1;PMS_P2;Temp;Humidity;BMP_temperature;BMP_pressure;BME280_temperature;BME280_humidity;BME280_pressure;Samples;Min_cycle;Max_cycle;Signal;HPM_P1;HPM_P2
2022/04/22 00:00:44;;;;;;;10.55;3.92;;;16.50;98.80;;;;;;5082554;28;20839;-73
2022/04/22 00:03:12;;;;;;;11.60;3.45;;;16.50;98.20;;;;;;5084358;28;20040;-73
2022/04/22 00:05:39;;;;;;;7.35;3.53;;;16.60;97.90;;;;;;5099806;28;20434;-74
2022/04/22 00:08:07;;;;;;;11.07;3.97;;;16.70;97.50;;;;;;5059419;28;20575;-74
2022/04/22 00:10:34;;;;;;;7.38;3.15;;;16.70;97.50;;;;;;5056419;28;20429;-74
2022/04/22 00:13:02;;;;;;;8.25;3.03;;;16.70;97.90;;;;;;5046916;28;20051;-74
2022/04/22 00:15:30;;;;;;;14.57;4.50;;;16.70;98.20;;;;;;5060135;28;20497;-73
2022/04/22 00:17:57;;;;;;;14.43;6.07;;;16.60;98.40;;;;;;5083823;28;20060;-74
2022/04/22 00:20:25;;;;;;;19.05;4.30;;;16.60;98.30;;;;;;5053809;28;20124;-75
2022/04/22 00:22:52;;;;;;;9.48;3.47;;;16.60;98.10;;;;;;5049032;28;20701;-74
2022/04/22 00:25:20;;;;;;;8.52;3.55;;;16.70;98.00;;;;;;5064084;28;20139;-73
2022/04/22 00:27:47;;;;;;;12.15;5.20;;;16.70;97.60;;;;;;5102844;28;20549;-73
2022/04/22 00:30:15;;;;;;;12.95;3.88;;;16.80;97.90;;;;;;5074974;28;20089;-73
2022/04/22 00:32:42;;;;;;;18.83;4.90;;;16.70;98.20;;;;;;5086054;28;20051;-74
2022/04/22 00:35:10;;;;;;;14.98;4.25;;;16.70;98.50;;;;;;5085406;28;20044;-75
2022/04/22 00:37:39;;;;;;;11.40;3.95;;;16.70;98.90;;;;;;5059069;28;20040;-74
2022/04/22 00:40:07;;;;;;;14.52;4.03;;;16.60;99.20;;;;;;5039744;28;20578;-76
2022/04/22 00:42:38;;;;;;;10.10;3.78;;;16.60;99.50;;;;;;5067917;28;20158;-74
2022/04/22 00:45:06;;;;;;;11.05;4.45;;;16.50;99.70;;;;;;5069097;28;20063;-73
2022/04/22 00:47:34;;;;;;;9.77;3.88;;;16.50;99.90;;;;;;5086050;28;20043;-75
2022/04/22 00:50:02;;;;;;;17.45;4.88;;;16.50;99.90;;;;;;5073827;28;20063;-74
2022/04/22 00:52:30;;;;;;;15.13;4.68;;;16.50;99.90;;;;;;5055103;28;20152;-73
2022/04/22 00:54:57;;;;;;;18.40;5.47;;;16.40;99.90;;;;;;5069209;28;20138;-75
2022/04/22 00:57:25;;;;;;;16.05;4.93;;;16.40;99.90;;;;;;5085665;28;20044;-75
2022/04/22 00:59:53;;;;;;;16.42;5.90;;;16.50;99.90;;;;;;5088991;28;20050;-74
2022/04/22 01:02:20;;;;;;;9.35;4.15;;;16.50;99.90;;;;;;5094677;28;20060;-75
2022/04/22 01:10:20;;;;;;;10.82;4.38;;;16.50;99.90;;;;;;5038124;28;20090;-75
2022/04/22 01:12:48;;;;;;;12.85;3.17;;;16.50;99.90;;;;;;5059934;28;20054;-75
2022/04/22 01:15:16;;;;;;;9.05;3.38;;;16.40;99.90;;;;;;5040906;28;20059;-74
2022/04/22 01:17:45;;;;;;;15.85;4.72;;;16.40;99.90;;;;;;5074417;28;20097;-74
2022/04/22 01:20:13;;;;;;;12.07;3.42;;;16.40;99.90;;;;;;5057782;28;20048;-75
2022/04/22 01:22:40;;;;;;;15.82;5.88;;;16.40;99.90;;;;;;5092286;28;20135;-75
2022/04/22 01:25:08;;;;;;;19.17;4.75;;;16.40;99.90;;;;;;5056645;28;20083;-75
2022/04/22 01:27:37;;;;;;;13.98;4.18;;;16.40;99.90;;;;;;5057430;28;20051;-75
2022/04/22 01:30:06;;;;;;;16.17;5.22;;;16.40;99.90;;;;;;5073903;28;20119;-75
2022/04/22 01:32:34;;;;;;;11.27;4.93;;;16.30;99.90;;;;;;5073360;28;20077;-75
2022/04/22 01:35:03;;;;;;;17.67;6.65;;;16.30;99.90;;;;;;5073852;28;20730;-75
2022/04/22 01:37:32;;;;;;;13.75;4.50;;;16.30;99.90;;;;;;5057051;28;20512;-75
2022/04/22 01:39:59;;;;;;;29.90;7.00;;;16.30;99.90;;;;;;5056663;28;20093;-75
2022/04/22 01:42:27;;;;;;;15.82;6.50;;;16.30;99.90;;;;;;5057428;28;20052;-75
2022/04/22 01:44:54;;;;;;;16.10;5.05;;;16.30;99.90;;;;;;5073365;28;20565;-75
2022/04/22 01:47:22;;;;;;;14.07;5.80;;;16.30;99.90;;;;;;5073812;28;20526;-74
2022/04/22 01:49:49;;;;;;;15.65;4.63;;;16.30;99.90;;;;;;5040659;28;20418;-74
2022/04/22 01:52:18;;;;;;;16.45;5.20;;;16.30;99.90;;;;;;5073818;28;20109;-74
2022/04/22 01:54:45;;;;;;;15.25;4.72;;;16.30;99.80;;;;;;5073757;28;20390;-75
2022/04/22 01:57:13;;;;;;;13.45;6.43;;;16.30;99.60;;;;;;5091443;28;20044;-75
2022/04/22 01:59:44;;;;;;;12.70;5.13;;;16.30;99.50;;;;;;5056853;28;20486;-74
2022/04/22 02:02:11;;;;;;;16.90;5.75;;;16.30;99.10;;;;;;5057007;28;20517;-74
2022/04/22 02:04:39;;;;;;;15.30;4.50;;;16.30;98.80;;;;;;5073469;28;20048;-74
2022/04/22 02:07:07;;;;;;;32.40;7.43;;;16.30;98.70;;;;;;5089831;28;20055;-75
2022/04/22 02:09:35;;;;;;;20.23;5.00;;;16.30;98.70;;;;;;5038376;28;20045;-74
2022/04/22 02:12:04;;;;;;;16.38;5.30;;;16.40;98.80;;;;;;5036687;28;20064;-74
2022/04/22 02:14:33;;;;;;;18.55;5.95;;;16.30;98.90;;;;;;5036129;28;20053;-75
2022/04/22 02:17:01;;;;;;;19.60;5.70;;;16.30;99.10;;;;;;5035605;28;20048;-74
2022/04/22 02:19:29;;;;;;;13.75;5.72;;;16.30;99.40;;;;;;5052706;28;20052;-76
2022/04/22 02:21:58;;;;;;;15.32;5.50;;;16.30;99.70;;;;;;5052395;28;20048;-75
2022/04/22 02:24:25;;;;;;;15.98;4.90;;;16.30;99.90;;;;;;5035641;28;20643;-74
2022/04/22 02:29:39;;;;;;;18.35;5.85;;;16.20;99.90;;;;;;5070586;28;20076;-76
2022/04/22 02:32:08;;;;;;;22.48;7.97;;;16.20;99.90;;;;;;5036107;28;20048;-75
2022/04/22 02:34:35;;;;;;;16.33;6.03;;;16.10;99.90;;;;;;5052743;28;20106;-74
2022/04/22 02:37:03;;;;;;;20.92;7.03;;;16.10;99.90;;;;;;5035649;28;20090;-75
2022/04/22 02:39:31;;;;;;;16.70;5.30;;;16.10;99.90;;;;;;5052780;28;20055;-75
2022/04/22 02:47:30;;;;;;;21.77;6.88;;;16.00;99.90;;;;;;5035821;28;20084;-74
2022/04/22 02:49:57;;;;;;;19.48;7.13;;;15.90;99.90;;;;;;5052461;28;20482;-74
2022/04/22 02:52:25;;;;;;;23.88;6.90;;;15.90;99.90;;;;;;5018956;28;20422;-75
2022/04/22 02:54:54;;;;;;;20.33;8.05;;;15.90;99.90;;;;;;5051963;28;20063;-75
2022/04/22 02:57:21;;;;;;;22.60;8.95;;;15.80;99.90;;;;;;5053542;28;20048;-75
2022/04/22 02:59:49;;;;;;;16.75;8.50;;;15.80;99.90;;;;;;5036088;28;20520;-74
2022/04/22 03:02:17;;;;;;;23.67;6.75;;;15.80;99.90;;;;;;5033833;28;20051;-73
2022/04/22 03:04:44;;;;;;;27.55;9.82;;;15.80;99.90;;;;;;5069916;28;20048;-75
2022/04/22 03:07:12;;;;;;;23.60;8.10;;;15.80;99.90;;;;;;5068852;28;20143;-74
2022/04/22 03:09:39;;;;;;;22.65;7.57;;;15.80;99.90;;;;;;5052259;28;20094;-75
2022/04/22 03:12:08;;;;;;;27.13;7.60;;;15.80;99.90;;;;;;5019419;28;20056;-74
2022/04/22 03:14:37;;;;;;;20.23;6.13;;;15.70;99.90;;;;;;5051978;28;20067;-75
2022/04/22 03:17:08;;;;;;;21.05;9.70;;;15.70;99.90;;;;;;5051573;28;20044;-75
2022/04/22 03:19:36;;;;;;;21.40;7.88;;;15.70;99.90;;;;;;5035721;28;20068;-75
2022/04/22 03:22:04;;;;;;;25.17;10.52;;;15.70;99.90;;;;;;5053891;28;20051;-75
2022/04/22 03:24:32;;;;;;;11.57;6.93;;;15.70;99.90;;;;;;5042826;28;20050;-75
2022/04/22 03:27:00;;;;;;;18.42;6.90;;;15.70;99.90;;;;;;5058440;28;20495;-74
2022/04/22 03:29:27;;;;;;;27.15;10.27;;;15.60;99.90;;;;;;5058986;28;20056;-74
2022/04/22 03:31:55;;;;;;;18.42;9.13;;;15.60;99.90;;;;;;5058261;28;20052;-76
2022/04/22 03:34:22;;;;;;;29.67;9.20;;;15.60;99.90;;;;;;5058736;28;20508;-74
2022/04/22 03:36:50;;;;;;;18.42;7.75;;;15.60;99.90;;;;;;5058438;28;20040;-75
2022/04/22 03:39:17;;;;;;;29.42;8.43;;;15.60;99.90;;;;;;5025468;28;20059;-75
2022/04/22 03:41:45;;;;;;;24.35;8.15;;;15.60;99.90;;;;;;5058969;28;20079;-75
2022/04/22 03:44:13;;;;;;;22.85;8.88;;;15.60;99.90;;;;;;5059029;28;20048;-75
2022/04/22 03:46:40;;;;;;;21.27;7.90;;;15.60;99.90;;;;;;5058647;28;20469;-75
2022/04/22 03:49:09;;;;;;;30.95;8.50;;;15.60;99.90;;;;;;5068281;28;20055;-75
2022/04/22 03:51:37;;;;;;;18.88;7.63;;;15.60;99.90;;;;;;5061795;28;20634;-75
2022/04/22 03:54:04;;;;;;;26.10;7.85;;;15.60;99.90;;;;;;5079007;28;20061;-75
2022/04/22 03:59:18;;;;;;;19.27;6.93;;;15.60;99.90;;;;;;5061395;28;20052;-75
2022/04/22 04:01:45;;;;;;;18.30;9.27;;;15.60;99.90;;;;;;5061425;28;20052;-75
2022/04/22 04:04:13;;;;;;;25.67;9.13;;;15.60;99.90;;;;;;5061848;28;20080;-75
2022/04/22 04:06:41;;;;;;;21.10;8.00;;;15.50;99.90;;;;;;5078350;28;20090;-75
2022/04/22 04:17:26;;;;;;;32.55;10.35;;;15.60;99.90;;;;;;5068375;28;20405;-75
2022/04/22 04:25:25;;;;;;;20.40;7.97;;;15.60;99.90;;;;;;5106614;28;20043;-73
2022/04/22 04:27:53;;;;;;;18.45;8.35;;;15.60;99.90;;;;;;5084408;28;20079;-75
2022/04/22 04:30:21;;;;;;;17.42;7.38;;;15.60;99.90;;;;;;5082422;28;20044;-74
2022/04/22 04:32:48;;;;;;;24.85;9.20;;;15.70;99.90;;;;;;5094553;28;20055;-74
2022/04/22 04:35:16;;;;;;;17.10;7.22;;;15.70;99.90;;;;;;5057816;28;20048;-74
2022/04/22 04:37:43;;;;;;;26.25;7.70;;;15.70;99.90;;;;;;5065777;28;20099;-74
2022/04/22 04:40:11;;;;;;;23.25;8.50;;;15.70;99.90;;;;;;5084740;28;20057;-74
2022/04/22 04:42:40;;;;;;;21.80;9.05;;;15.70;99.90;;;;;;5071212;28;20059;-75
2022/04/22 04:45:08;;;;;;;32.85;11.07;;;15.70;99.90;;;;;;5093073;28;20039;-75
2022/04/22 04:47:40;;;;;;;25.23;9.30;;;15.70;99.90;;;;;;5063896;28;20048;-75
2022/04/22 04:50:09;;;;;;;19.70;8.35;;;15.70;99.90;;;;;;5073454;28;20169;-75
2022/04/22 04:52:37;;;;;;;17.15;7.97;;;15.70;99.90;;;;;;5060082;28;20055;-75
2022/04/22 04:55:09;;;;;;;23.10;8.93;;;15.80;99.90;;;;;;5053137;28;20048;-75
2022/04/22 04:57:37;;;;;;;25.33;10.43;;;15.80;99.90;;;;;;5070223;28;20050;-75
2022/04/22 05:00:06;;;;;;;19.58;7.88;;;15.70;99.90;;;;;;5063979;28;20031;-74
2022/04/22 05:02:35;;;;;;;29.55;9.32;;;15.70;99.90;;;;;;5065154;28;20490;-74
2022/04/22 05:05:05;;;;;;;21.42;10.32;;;15.80;99.90;;;;;;5057682;28;20073;-75
2022/04/22 05:07:33;;;;;;;29.30;8.88;;;15.80;99.90;;;;;;5061172;28;20790;-74
2022/04/22 05:10:01;;;;;;;28.80;9.30;;;15.80;99.90;;;;;;5062707;28;20063;-75
2022/04/22 05:12:32;;;;;;;24.33;9.65;;;15.80;99.90;;;;;;5041154;28;20051;-74
2022/04/22 05:14:59;;;;;;;25.92;9.15;;;15.80;99.90;;;;;;5091855;28;20044;-74
2022/04/22 05:17:26;;;;;;;37.30;11.05;;;15.90;99.90;;;;;;5092178;28;20044;-74
2022/04/22 05:19:54;;;;;;;27.10;8.50;;;15.90;99.90;;;;;;5057569;28;20133;-75
2022/04/22 05:22:22;;;;;;;29.30;10.52;;;15.90;99.90;;;;;;5091985;28;20040;-74
2022/04/22 05:24:49;;;;;;;29.40;9.07;;;15.90;99.90;;;;;;5056313;28;20585;-74
2022/04/22 05:27:17;;;;;;;23.88;11.13;;;15.90;99.90;;;;;;5074361;28;20043;-74
2022/04/22 05:32:36;;;;;;;23.27;8.55;;;15.90;99.90;;;;;;5057320;28;20498;-74
2022/04/22 05:35:06;;;;;;;17.02;8.70;;;15.90;99.90;;;;;;5073906;28;20090;-74
2022/04/22 05:37:52;;;;;;;24.10;9.00;;;15.90;99.90;;;;;;5056985;28;20504;-74
2022/04/22 05:40:26;;;;;;;22.58;8.73;;;15.90;99.90;;;;;;5056845;28;20044;-74
2022/04/22 05:42:54;;;;;;;23.73;9.30;;;15.90;99.90;;;;;;5074057;28;20051;-74
2022/04/22 05:45:24;;;;;;;25.98;11.70;;;15.90;99.90;;;;;;5073381;28;20138;-73
2022/04/22 05:47:52;;;;;;;23.52;9.27;;;15.90;99.90;;;;;;5040616;28;20513;-74
2022/04/22 05:50:21;;;;;;;34.83;9.70;;;15.90;99.90;;;;;;5073067;28;20048;-75
2022/04/22 05:52:49;;;;;;;21.42;9.85;;;15.90;99.90;;;;;;5056120;28;20101;-75
2022/04/22 05:55:20;;;;;;;22.40;10.68;;;15.90;99.90;;;;;;5056858;28;20048;-75
2022/04/22 05:57:48;;;;;;;30.17;9.40;;;15.90;99.90;;;;;;5073314;28;20105;-74
2022/04/22 06:00:21;;;;;;;34.38;10.73;;;15.90;99.90;;;;;;5073398;28;20097;-75
2022/04/22 06:02:50;;;;;;;34.80;10.82;;;15.90;99.90;;;;;;5056260;28;20128;-75
2022/04/22 06:05:23;;;;;;;28.98;12.20;;;15.90;99.90;;;;;;5073374;28;20405;-74
2022/04/22 06:10:31;;;;;;;31.17;11.07;;;15.90;99.90;;;;;;5056003;28;20059;-74
2022/04/22 06:10:40;;;;;;;31.42;10.60;;;15.90;99.90;;;;;;5056516;28;20414;-75
2022/04/22 06:13:08;;;;;;;36.92;10.68;;;15.90;99.90;;;;;;5056926;28;20056;-75
2022/04/22 06:15:35;;;;;;;38.80;11.70;;;15.90;99.90;;;;;;5073071;28;20677;-75
2022/04/22 06:18:03;;;;;;;23.33;10.23;;;15.90;99.90;;;;;;5072816;28;20044;-76
2022/04/22 06:20:31;;;;;;;29.63;10.52;;;15.90;99.90;;;;;;5072644;28;20044;-75
2022/04/22 06:23:00;;;;;;;34.08;11.10;;;15.90;99.90;;;;;;5055878;28;20076;-74
2022/04/22 06:25:28;;;;;;;28.90;10.73;;;15.90;99.90;;;;;;5039874;28;20146;-74
2022/04/22 06:27:56;;;;;;;25.67;9.00;;;15.90;99.90;;;;;;5091195;28;20050;-75
2022/04/22 06:30:24;;;;;;;27.92;13.07;;;16.00;99.90;;;;;;5056582;28;20505;-76
2022/04/22 06:32:53;;;;;;;25.08;9.07;;;16.00;99.90;;;;;;5039759;28;20048;-75
2022/04/22 06:35:21;;;;;;;29.67;10.38;;;16.00;99.90;;;;;;5070194;28;20078;-75
2022/04/22 06:37:51;;;;;;;22.20;8.45;;;16.10;99.90;;;;;;5072697;28;20058;-76
2022/04/22 06:45:54;;;;;;;29.48;9.40;;;16.30;99.90;;;;;;5091082;28;20498;-75
2022/04/22 06:48:34;;;;;;;32.38;10.13;;;16.30;99.90;;;;;;5072929;28;20490;-75
2022/04/22 06:51:11;;;;;;;20.63;8.95;;;16.50;99.90;;;;;;5090723;28;20128;-75
2022/04/22 06:53:40;;;;;;;22.15;9.98;;;16.70;99.90;;;;;;5039302;28;20509;-75
2022/04/22 06:56:08;;;;;;;20.80;10.73;;;16.70;99.90;;;;;;5072954;28;20044;-75
2022/04/22 06:58:38;;;;;;;31.23;10.75;;;16.80;99.90;;;;;;5071535;28;20779;-74
2022/04/22 07:01:07;;;;;;;26.13;9.13;;;16.90;99.90;;;;;;5072330;28;20498;-75
2022/04/22 07:03:48;;;;;;;22.70;8.90;;;17.00;99.90;;;;;;5071970;28;20052;-75
2022/04/22 07:06:16;;;;;;;25.65;9.30;;;17.00;99.90;;;;;;5072189;28;20044;-75
2022/04/22 07:08:46;;;;;;;35.03;10.85;;;17.20;99.90;;;;;;5055339;28;20040;-75
2022/04/22 07:11:24;;;;;;;27.45;8.85;;;17.20;99.90;;;;;;5072412;28;20078;-75
2022/04/22 07:13:53;;;;;;;25.38;10.38;;;17.20;99.90;;;;;;5055446;28;20146;-75
2022/04/22 07:16:21;;;;;;;22.23;7.93;;;17.40;99.90;;;;;;5072264;28;20058;-75
2022/04/22 07:18:49;;;;;;;26.02;11.02;;;17.50;99.90;;;;;;5090162;28;20505;-75
2022/04/22 07:21:17;;;;;;;32.42;10.15;;;17.60;99.90;;;;;;5055285;28;20051;-75
2022/04/22 07:23:45;;;;;;;21.42;9.95;;;17.50;99.90;;;;;;5038576;28;20059;-76
2022/04/22 07:26:14;;;;;;;28.20;10.45;;;17.50;99.90;;;;;;5072337;28;20082;-75
2022/04/22 07:28:46;;;;;;;32.60;9.13;;;17.60;99.90;;;;;;5052956;28;20063;-76
2022/04/22 07:31:18;;;;;;;28.45;10.15;;;17.70;99.90;;;;;;5071884;28;20079;-75
2022/04/22 07:33:46;;;;;;;26.13;10.05;;;17.80;99.90;;;;;;5055798;28;20044;-75
2022/04/22 07:36:14;;;;;;;26.67;10.70;;;17.60;99.90;;;;;;5055458;28;20130;-76
2022/04/22 07:38:44;;;;;;;25.63;8.48;;;17.60;99.90;;;;;;5054919;28;20117;-75
2022/04/22 07:41:16;;;;;;;33.40;9.95;;;17.40;99.90;;;;;;5055492;28;20047;-75
2022/04/22 07:46:48;;;;;;;42.63;10.68;;;17.30;99.90;;;;;;5072011;28;20039;-75
2022/04/22 07:49:17;;;;;;;40.75;9.65;;;17.20;99.90;;;;;;5090213;28;20052;-75
2022/04/22 07:51:45;;;;;;;30.50;10.45;;;17.40;99.90;;;;;;5055771;28;20048;-75
2022/04/22 07:54:12;;;;;;;33.25;11.88;;;17.50;99.90;;;;;;5038994;28;20043;-75
2022/04/22 07:56:41;;;;;;;27.55;9.85;;;17.70;99.90;;;;;;5054548;28;20129;-76
2022/04/22 07:59:10;;;;;;;22.55;10.13;;;18.00;99.90;;;;;;5071941;28;20056;-75
2022/04/22 08:01:37;;;;;;;29.83;11.00;;;17.90;99.90;;;;;;5055088;28;20056;-76
2022/04/22 08:04:06;;;;;;;27.30;11.77;;;17.90;99.90;;;;;;5072431;28;20223;-75
2022/04/22 08:06:34;;;;;;;26.83;11.82;;;17.90;99.90;;;;;;5054927;28;20091;-75
2022/04/22 08:09:02;;;;;;;35.10;10.18;;;17.70;99.90;;;;;;5057191;28;20048;-76
2022/04/22 08:11:30;;;;;;;26.20;10.23;;;17.60;99.90;;;;;;5059059;28;20059;-76
2022/04/22 08:13:59;;;;;;;28.75;8.77;;;17.50;99.90;;;;;;5075234;28;20047;-76
2022/04/22 08:16:27;;;;;;;33.50;10.68;;;17.40;99.90;;;;;;5056159;28;20819;-75
2022/04/22 08:18:55;;;;;;;29.77;11.13;;;17.40;99.90;;;;;;5041868;28;20040;-75
2022/04/22 08:21:25;;;;;;;29.63;10.88;;;17.40;99.90;;;;;;5093325;28;20066;-76
2022/04/22 08:23:52;;;;;;;28.98;11.35;;;17.30;99.90;;;;;;5093327;28;20812;-75
2022/04/22 08:26:20;;;;;;;35.83;11.52;;;17.20;99.90;;;;;;5058682;28;20043;-75
2022/04/22 08:28:48;;;;;;;30.13;10.60;;;17.20;99.90;;;;;;5057900;28;20048;-76
2022/04/22 08:31:17;;;;;;;32.50;12.05;;;17.20;99.90;;;;;;5075340;28;20044;-76
2022/04/22 08:33:46;;;;;;;38.88;10.27;;;17.20;99.90;;;;;;5041902;28;20105;-75
2022/04/22 08:36:15;;;;;;;34.67;10.68;;;17.30;99.90;;;;;;5075447;28;20048;-75
2022/04/22 08:38:42;;;;;;;31.48;10.70;;;17.30;99.90;;;;;;5058312;28;20498;-77
2022/04/22 08:41:10;;;;;;;24.08;11.70;;;17.30;99.90;;;;;;5074581;28;20104;-76
2022/04/22 08:43:38;;;;;;;31.42;11.43;;;17.40;99.90;;;;;;5058569;28;20483;-76
2022/04/22 08:49:58;;;;;;;31.65;10.77;;;17.30;99.90;;;;;;5058153;28;20086;-76
2022/04/22 08:51:45;;;;;;;35.17;13.00;;;17.50;99.90;;;;;;5074985;28;20067;-76
2022/04/22 08:54:15;;;;;;;33.58;11.55;;;17.50;99.90;;;;;;5092542;28;20040;-76
2022/04/22 08:56:43;;;;;;;36.17;12.38;;;17.50;99.90;;;;;;5041292;28;20048;-77
2022/04/22 08:59:11;;;;;;;26.23;11.82;;;17.40;99.90;;;;;;5092604;28;20193;-78
2022/04/22 09:01:39;;;;;;;26.25;9.98;;;17.40;99.90;;;;;;5074577;28;20079;-76
2022/04/22 09:04:07;;;;;;;36.30;12.27;;;17.40;99.90;;;;;;5041619;28;20052;-76
2022/04/22 09:06:35;;;;;;;42.78;13.02;;;17.50;99.90;;;;;;5058123;28;20066;-77
2022/04/22 09:09:04;;;;;;;32.17;10.70;;;17.70;99.90;;;;;;5092636;28;20039;-76
2022/04/22 09:11:37;;;;;;;29.45;10.68;;;17.90;99.90;;;;;;5092560;28;20068;-76
2022/04/22 09:14:05;;;;;;;36.58;12.68;;;18.00;99.90;;;;;;5054405;28;20052;-76
2022/04/22 09:16:33;;;;;;;31.70;11.00;;;18.10;99.90;;;;;;5054471;28;20052;-76
2022/04/22 09:19:03;;;;;;;29.08;12.05;;;18.00;99.90;;;;;;5037182;28;20056;-77
2022/04/22 09:21:30;;;;;;;34.75;11.05;;;17.90;99.90;;;;;;5053619;28;20067;-77
2022/04/22 09:24:14;;;;;;;36.95;13.55;;;17.90;99.90;;;;;;5037546;28;20052;-75
2022/04/22 09:26:41;;;;;;;32.00;12.38;;;17.80;99.90;;;;;;5054491;28;20037;-76
2022/04/22 09:29:12;;;;;;;33.97;12.70;;;17.70;99.90;;;;;;5021059;28;20079;-77
2022/04/22 09:31:49;;;;;;;30.70;10.57;;;17.60;99.90;;;;;;5053759;28;20056;-75
2022/04/22 09:34:39;;;;;;;29.83;11.50;;;17.50;99.90;;;;;;5072198;28;20135;-74
2022/04/22 09:42:55;;;;;;;40.88;14.45;;;17.20;99.90;;;;;;5037061;28;20048;-78
2022/04/22 09:45:44;;;;;;;46.97;14.60;;;17.40;99.90;;;;;;5054179;28;20039;-76
2022/04/22 09:48:14;;;;;;;46.50;12.85;;;17.40;99.90;;;;;;5020944;28;20052;-76
2022/04/22 09:50:52;;;;;;;39.67;15.05;;;17.60;99.90;;;;;;5053378;28;20052;-76
2022/04/22 09:53:34;;;;;;;31.73;12.75;;;17.60;99.90;;;;;;5053799;28;20889;-75
2022/04/22 09:56:06;;;;;;;41.92;11.57;;;17.70;99.90;;;;;;5053746;28;20041;-77
2022/04/22 09:58:35;;;;;;;38.78;11.98;;;17.80;99.90;;;;;;5020495;28;20121;-78
2022/04/22 10:01:06;;;;;;;31.40;13.30;;;18.00;99.90;;;;;;5053456;28;20159;-75
2022/04/22 10:03:35;;;;;;;40.10;12.90;;;18.20;99.90;;;;;;5060289;28;20036;-77
2022/04/22 10:06:05;;;;;;;36.25;10.30;;;18.30;99.90;;;;;;5056427;28;20076;-76
2022/04/22 10:08:38;;;;;;;32.38;11.57;;;18.40;99.90;;;;;;5073109;28;20097;-75
2022/04/22 10:11:07;;;;;;;41.97;16.13;;;18.30;99.90;;;;;;5039735;28;20716;-75
2022/04/22 10:13:41;;;;;;;38.80;12.88;;;18.30;99.90;;;;;;5039248;28;20452;-76
2022/04/22 10:16:10;;;;;;;41.20;13.43;;;18.30;99.90;;;;;;5091777;28;20051;-75
2022/04/22 10:18:39;;;;;;;34.28;11.82;;;18.20;99.90;;;;;;5055880;28;20039;-75
2022/04/22 10:21:07;;;;;;;34.53;10.98;;;18.10;99.90;;;;;;5039855;28;20048;-75
2022/04/22 10:23:37;;;;;;;30.13;11.88;;;18.10;99.90;;;;;;5056589;28;20512;-75
2022/04/22 10:26:05;;;;;;;36.75;14.20;;;18.10;99.90;;;;;;5055864;28;20077;-75
2022/04/22 10:28:34;;;;;;;39.08;13.05;;;18.10;99.90;;;;;;5073540;28;20052;-75
2022/04/22 10:31:03;;;;;;;40.72;14.63;;;18.20;99.90;;;;;;5073192;28;20044;-75
2022/04/22 10:33:45;;;;;;;37.47;13.35;;;18.10;99.90;;;;;;5072513;28;20144;-76
2022/04/22 10:36:18;;;;;;;39.92;13.20;;;18.20;99.90;;;;;;5056112;28;20040;-75
2022/04/22 10:38:48;;;;;;;48.40;14.05;;;18.30;99.90;;;;;;5072899;28;20059;-76
2022/04/22 10:41:20;;;;;;;36.97;12.55;;;18.60;99.90;;;;;;5055376;28;20044;-77
2022/04/22 10:49:37;;;;;;;37.55;14.25;;;18.30;99.90;;;;;;5055669;28;20103;-77
2022/04/22 10:52:13;;;;;;;33.28;11.10;;;18.20;99.90;;;;;;5072299;28;20135;-78
2022/04/22 10:54:53;;;;;;;51.60;16.08;;;18.20;99.90;;;;;;5053069;28;20113;-77
2022/04/22 10:57:23;;;;;;;39.15;12.65;;;18.20;99.90;;;;;;5038910;28;20040;-77
2022/04/22 11:00:09;;;;;;;28.77;12.02;;;18.30;99.90;;;;;;5054175;28;20581;-77
2022/04/22 11:02:42;;;;;;;33.70;14.27;;;18.30;99.90;;;;;;5072064;28;20087;-76
2022/04/22 11:05:23;;;;;;;41.22;11.57;;;18.20;99.90;;;;;;5055527;28;20082;-76
2022/04/22 11:07:51;;;;;;;48.92;13.65;;;18.40;99.90;;;;;;5054547;28;20058;-76
2022/04/22 11:10:19;;;;;;;49.40;14.90;;;18.40;99.90;;;;;;5071857;28;20060;-76
2022/04/22 11:12:53;;;;;;;48.25;15.00;;;18.40;99.90;;;;;;5037714;28;20044;-77
2022/04/22 11:15:43;;;;;;;47.17;14.02;;;18.40;99.90;;;;;;5055329;28;20060;-76
2022/04/22 11:18:14;;;;;;;42.72;12.93;;;18.40;99.90;;;;;;5071427;28;20155;-77
2022/04/22 11:20:58;;;;;;;57.20;13.18;;;18.60;99.90;;;;;;5038832;28;20067;-77
2022/04/22 11:23:42;;;;;;;40.90;12.52;;;18.80;99.90;;;;;;5055228;28;20044;-77
2022/04/22 11:26:17;;;;;;;40.00;13.38;;;18.90;99.90;;;;;;5071793;28;20055;-77
2022/04/22 11:28:46;;;;;;;40.60;14.98;;;18.80;99.90;;;;;;5071222;28;20051;-77
2022/04/22 11:31:14;;;;;;;58.13;13.80;;;18.90;99.90;;;;;;5054727;28;20051;-77
2022/04/22 11:33:48;;;;;;;47.42;16.17;;;18.90;99.90;;;;;;5038608;28;20052;-79
2022/04/22 11:36:16;;;;;;;52.00;15.60;;;19.00;99.90;;;;;;5055059;28;20152;-79
2022/04/22 11:38:55;;;;;;;46.92;14.85;;;19.20;99.90;;;;;;5071306;28;20406;-79
2022/04/22 11:41:23;;;;;;;42.95;12.90;;;19.40;99.90;;;;;;5071202;28;20155;-77
2022/04/22 11:43:50;;;;;;;52.17;13.05;;;19.50;99.90;;;;;;5056494;28;20043;-79
2022/04/22 11:46:19;;;;;;;42.55;14.32;;;19.40;99.90;;;;;;5075785;28;20048;-77
2022/04/22 11:48:49;;;;;;;50.53;15.95;;;19.30;99.90;;;;;;5058294;28;20048;-77
2022/04/22 11:51:19;;;;;;;40.10;13.07;;;19.30;99.90;;;;;;5058239;28;20051;-76
2022/04/22 11:53:49;;;;;;;53.30;14.10;;;19.30;99.90;;;;;;5042504;28;20056;-77
2022/04/22 11:56:19;;;;;;;44.40;14.82;;;19.30;99.90;;;;;;5042321;28;20048;-79
2022/04/22 11:58:52;;;;;;;54.67;14.55;;;19.10;99.90;;;;;;5093128;28;20047;-77
2022/04/22 12:07:01;;;;;;;45.08;14.48;;;19.10;99.90;;;;;;5093458;28;20051;-77
2022/04/22 12:09:29;;;;;;;39.55;13.93;;;18.90;99.90;;;;;;5075318;28;20085;-77
2022/04/22 12:11:58;;;;;;;51.20;16.02;;;18.80;99.90;;;;;;5041915;28;20138;-77
2022/04/22 12:14:28;;;;;;;39.33;12.68;;;18.80;99.90;;;;;;5059423;28;20059;-77
2022/04/22 12:17:01;;;;;;;47.38;14.13;;;19.00;99.90;;;;;;5075370;28;20044;-78
2022/04/22 12:19:29;;;;;;;40.58;13.55;;;19.10;99.90;;;;;;5075119;28;20397;-77
2022/04/22 12:21:59;;;;;;;31.92;11.68;;;19.10;99.90;;;;;;5075087;28;20044;-77
2022/04/22 12:24:27;;;;;;;49.63;15.10;;;19.20;99.90;;;;;;5041918;28;20432;-77
2022/04/22 12:26:55;;;;;;;54.92;14.82;;;19.30;99.90;;;;;;5041733;28;20497;-77
2022/04/22 12:29:24;;;;;;;44.83;13.00;;;19.20;99.90;;;;;;5058142;28;20113;-77
2022/04/22 12:31:55;;;;;;;42.55;13.38;;;19.10;99.90;;;;;;5093043;28;20731;-76
2022/04/22 12:34:31;;;;;;;42.38;13.10;;;19.00;99.90;;;;;;5059046;28;20071;-75
2022/04/22 12:37:02;;;;;;;44.47;15.75;;;18.90;99.90;;;;;;5074740;28;20078;-76
2022/04/22 12:39:43;;;;;;;42.03;11.63;;;19.10;99.90;;;;;;5041952;28;20056;-76
2022/04/22 12:42:17;;;;;;;41.60;13.20;;;19.30;99.90;;;;;;5069112;28;20048;-76
2022/04/22 12:53:37;;;;;;;41.92;13.48;;;18.90;99.90;;;;;;5074481;28;20503;-76
2022/04/22 12:56:05;;;;;;;42.92;14.73;;;19.00;99.90;;;;;;5073495;28;20036;-76
2022/04/22 12:58:50;;;;;;;50.50;14.98;;;19.00;99.90;;;;;;5040982;28;20052;-76
2022/04/22 13:01:27;;;;;;;44.33;14.93;;;19.00;99.90;;;;;;5074463;28;20044;-76
2022/04/22 13:03:57;;;;;;;39.95;13.52;;;18.90;99.90;;;;;;5042099;28;20413;-76
2022/04/22 13:06:45;;;;;;;27.30;10.15;;;18.90;99.90;;;;;;5058115;28;20048;-76
2022/04/22 13:09:15;;;;;;;47.75;16.15;;;18.80;99.90;;;;;;5041430;28;20512;-76
2022/04/22 13:11:43;;;;;;;37.13;13.57;;;18.70;99.90;;;;;;5036511;28;20067;-75
2022/04/22 13:14:12;;;;;;;41.35;12.65;;;18.70;99.90;;;;;;5054157;28;20060;-76
2022/04/22 13:16:39;;;;;;;39.95;13.57;;;18.80;99.90;;;;;;5062884;28;20048;-76
2022/04/22 13:19:11;;;;;;;40.72;12.27;;;18.80;99.90;;;;;;5040104;28;20083;-76
2022/04/22 13:21:40;;;;;;;51.72;15.50;;;18.80;99.90;;;;;;5049178;28;20056;-76
2022/04/22 13:24:09;;;;;;;46.08;14.45;;;19.00;99.90;;;;;;5037261;28;20051;-75
2022/04/22 13:26:40;;;;;;;43.15;12.73;;;19.30;99.90;;;;;;5062174;28;20054;-76
2022/04/22 13:29:07;;;;;;;43.35;13.27;;;19.10;99.90;;;;;;5056168;28;20548;-76
2022/04/22 13:31:35;;;;;;;57.67;15.48;;;19.00;99.90;;;;;;5062530;28;20040;-76
2022/04/22 13:34:06;;;;;;;61.42;15.00;;;18.80;99.90;;;;;;5053529;28;20040;-76
2022/04/22 13:36:35;;;;;;;49.38;13.75;;;18.70;99.90;;;;;;5048367;28;20048;-76
2022/04/22 13:39:03;;;;;;;49.33;14.32;;;18.70;99.90;;;;;;5070644;28;20522;-77
2022/04/22 13:41:32;;;;;;;50.83;14.23;;;18.60;99.90;;;;;;5068094;28;20055;-76
2022/04/22 13:43:59;;;;;;;36.92;13.18;;;18.60;99.90;;;;;;5040491;28;20090;-76
2022/04/22 13:54:46;;;;;;;63.65;16.38;;;18.50;99.90;;;;;;5091427;28;20040;-76
2022/04/22 13:57:13;;;;;;;47.05;16.92;;;18.50;99.90;;;;;;5061117;28;20390;-75
2022/04/22 13:59:41;;;;;;;45.85;15.88;;;18.40;99.90;;;;;;5073419;28;20170;-76
2022/04/22 14:02:09;;;;;;;58.25;14.63;;;18.40;99.90;;;;;;5079185;28;20114;-75